RAM431 GMMN-GMAD
Flight info
| Callsign | RAM431 |
|---|---|
| Flight time | 0h 41m |
| Altitude | 29000 |
| Route | CSD UR975 EKTAL |
| Aircraft | B738/M-SDE2E3FGHIRWXY/LB1 |
Departure
| Time | 2026-04-28 23:02 |
|---|---|
| Airport | Mohammed V International Airport (GMMN) |
Arrival
| Time | 2026-04-28 23:44 |
|---|---|
| Airport | Al Massira Airport (GMAD) |
| Time | Latitude | Longitude | Altitude | Speed | Heading |
|---|---|---|---|---|---|
| 2026-04-28 22:34 | 33.37293 | -7.58407 | 655 ft | 0 kts | 117° |
| 2026-04-28 22:54 | 33.37263 | -7.58341 | 652 ft | 18 kts | 126° |
| 2026-04-28 22:54 | 33.37142 | -7.58284 | 652 ft | 19 kts | 164° |
| 2026-04-28 22:55 | 33.37019 | -7.58244 | 652 ft | 18 kts | 165° |
| 2026-04-28 22:55 | 33.36936 | -7.58271 | 652 ft | 13 kts | 254° |
| 2026-04-28 22:55 | 33.36913 | -7.58373 | 652 ft | 13 kts | 255° |
| 2026-04-28 22:55 | 33.36873 | -7.58461 | 652 ft | 12 kts | 202° |
| 2026-04-28 22:56 | 33.36790 | -7.58442 | 652 ft | 12 kts | 162° |
| 2026-04-28 22:56 | 33.36711 | -7.58415 | 652 ft | 12 kts | 165° |
| 2026-04-28 22:56 | 33.36632 | -7.58389 | 652 ft | 12 kts | 164° |
| 2026-04-28 22:56 | 33.36556 | -7.58363 | 653 ft | 11 kts | 164° |
| 2026-04-28 22:57 | 33.36480 | -7.58337 | 653 ft | 16 kts | 164° |
| 2026-04-28 22:57 | 33.36310 | -7.58279 | 651 ft | 29 kts | 163° |
| 2026-04-28 22:57 | 33.36120 | -7.58213 | 651 ft | 27 kts | 164° |
| 2026-04-28 22:57 | 33.35945 | -7.58153 | 654 ft | 26 kts | 164° |
| 2026-04-28 22:58 | 33.35778 | -7.58097 | 651 ft | 24 kts | 164° |
| 2026-04-28 22:58 | 33.35625 | -7.58044 | 651 ft | 22 kts | 163° |
| 2026-04-28 22:58 | 33.35477 | -7.57992 | 653 ft | 22 kts | 164° |
| 2026-04-28 22:58 | 33.35333 | -7.57946 | 653 ft | 20 kts | 170° |
| 2026-04-28 22:59 | 33.35250 | -7.58021 | 652 ft | 8 kts | 253° |
| 2026-04-28 22:59 | 33.35243 | -7.58050 | 652 ft | 0 kts | 253° |
| 2026-04-28 22:59 | 33.35238 | -7.58070 | 653 ft | 7 kts | 254° |
| 2026-04-28 23:00 | 33.35220 | -7.58149 | 654 ft | 13 kts | 254° |
| 2026-04-28 23:00 | 33.35213 | -7.58253 | 657 ft | 13 kts | 294° |
| 2026-04-28 23:00 | 33.35248 | -7.58274 | 655 ft | 0 kts | 345° |
| 2026-04-28 23:01 | 33.35250 | -7.58275 | 654 ft | 0 kts | 345° |
| 2026-04-28 23:01 | 33.35255 | -7.58276 | 654 ft | 2 kts | 345° |
| 2026-04-28 23:01 | 33.35434 | -7.58335 | 648 ft | 62 kts | 344° |
| 2026-04-28 23:01 | 33.36066 | -7.58554 | 644 ft | 126 kts | 344° |
| 2026-04-28 23:02 | 33.37064 | -7.58911 | 792 ft | 165 kts | 342° |
| 2026-04-28 23:02 | 33.38180 | -7.59301 | 1451 ft | 169 kts | 343° |
| 2026-04-28 23:02 | 33.39325 | -7.59695 | 2189 ft | 171 kts | 343° |
| 2026-04-28 23:02 | 33.40493 | -7.60127 | 2778 ft | 184 kts | 332° |
| 2026-04-28 23:03 | 33.41446 | -7.61258 | 3100 ft | 206 kts | 292° |
| 2026-04-28 23:03 | 33.41528 | -7.62980 | 3405 ft | 222 kts | 252° |
| 2026-04-28 23:03 | 33.40588 | -7.64499 | 3760 ft | 241 kts | 217° |
| 2026-04-28 23:03 | 33.39128 | -7.65647 | 4263 ft | 256 kts | 213° |
| 2026-04-28 23:04 | 33.37621 | -7.66811 | 5109 ft | 258 kts | 213° |
| 2026-04-28 23:04 | 33.34614 | -7.69264 | 6660 ft | 267 kts | 215° |
| 2026-04-28 23:04 | 33.33087 | -7.70570 | 7387 ft | 271 kts | 216° |
| 2026-04-28 23:05 | 33.31568 | -7.71896 | 8120 ft | 275 kts | 217° |
| 2026-04-28 23:05 | 33.30017 | -7.73271 | 8860 ft | 280 kts | 217° |
| 2026-04-28 23:05 | 33.28445 | -7.74679 | 9596 ft | 285 kts | 217° |
| 2026-04-28 23:05 | 33.26849 | -7.76118 | 10257 ft | 291 kts | 218° |
| 2026-04-28 23:06 | 33.25172 | -7.77637 | 10472 ft | 314 kts | 218° |
| 2026-04-28 23:06 | 33.23361 | -7.79282 | 10673 ft | 336 kts | 218° |
| 2026-04-28 23:06 | 33.21471 | -7.81001 | 11170 ft | 345 kts | 218° |
| 2026-04-28 23:06 | 33.19551 | -7.82749 | 11888 ft | 347 kts | 218° |
| 2026-04-28 23:07 | 33.17624 | -7.84503 | 12670 ft | 348 kts | 218° |
| 2026-04-28 23:07 | 33.15718 | -7.86238 | 13427 ft | 351 kts | 218° |
| 2026-04-28 23:07 | 33.13761 | -7.88019 | 14147 ft | 354 kts | 218° |
| 2026-04-28 23:07 | 33.11789 | -7.89814 | 14825 ft | 358 kts | 218° |
| 2026-04-28 23:08 | 33.09795 | -7.91627 | 15506 ft | 362 kts | 218° |
| 2026-04-28 23:08 | 33.07780 | -7.93459 | 16180 ft | 365 kts | 218° |
| 2026-04-28 23:08 | 33.05769 | -7.95285 | 16829 ft | 369 kts | 218° |
| 2026-04-28 23:08 | 33.03712 | -7.97153 | 17494 ft | 374 kts | 219° |
| 2026-04-28 23:09 | 33.01632 | -7.99041 | 18150 ft | 378 kts | 219° |
| 2026-04-28 23:09 | 32.99530 | -8.00947 | 18736 ft | 381 kts | 219° |
| 2026-04-28 23:09 | 32.97409 | -8.02870 | 19325 ft | 384 kts | 219° |
| 2026-04-28 23:09 | 32.95273 | -8.04803 | 19923 ft | 386 kts | 219° |
| 2026-04-28 23:10 | 32.93032 | -8.06607 | 20488 ft | 391 kts | 211° |
| 2026-04-28 23:10 | 32.90533 | -8.07956 | 21051 ft | 396 kts | 203° |
| 2026-04-28 23:10 | 32.87978 | -8.09117 | 21637 ft | 398 kts | 203° |
| 2026-04-28 23:10 | 32.85377 | -8.10287 | 22357 ft | 396 kts | 203° |
| 2026-04-28 23:11 | 32.82809 | -8.11453 | 23142 ft | 393 kts | 204° |
| 2026-04-28 23:11 | 32.80283 | -8.12616 | 23752 ft | 394 kts | 204° |
| 2026-04-28 23:11 | 32.77720 | -8.13807 | 23924 ft | 395 kts | 204° |
| 2026-04-28 23:11 | 32.75155 | -8.15001 | 23963 ft | 394 kts | 204° |
| 2026-04-28 23:12 | 32.72604 | -8.16189 | 23965 ft | 394 kts | 204° |
| 2026-04-28 23:12 | 32.70057 | -8.17377 | 23987 ft | 400 kts | 204° |
| 2026-04-28 23:12 | 32.67415 | -8.18612 | 24084 ft | 413 kts | 204° |
| 2026-04-28 23:12 | 32.64709 | -8.19877 | 24321 ft | 421 kts | 204° |
| 2026-04-28 23:13 | 32.61958 | -8.21160 | 24691 ft | 425 kts | 204° |
| 2026-04-28 23:13 | 32.59222 | -8.22434 | 25097 ft | 428 kts | 204° |
| 2026-04-28 23:13 | 32.56428 | -8.23734 | 25479 ft | 431 kts | 204° |
| 2026-04-28 23:13 | 32.53618 | -8.25041 | 25861 ft | 434 kts | 204° |
| 2026-04-28 23:14 | 32.50802 | -8.26350 | 26326 ft | 435 kts | 204° |
| 2026-04-28 23:14 | 32.48022 | -8.27640 | 26844 ft | 434 kts | 205° |
| 2026-04-28 23:14 | 32.45219 | -8.28941 | 27358 ft | 433 kts | 205° |
| 2026-04-28 23:14 | 32.42397 | -8.30250 | 27822 ft | 434 kts | 205° |
| 2026-04-28 23:15 | 32.39570 | -8.31561 | 28296 ft | 435 kts | 205° |
| 2026-04-28 23:15 | 32.36741 | -8.32872 | 28813 ft | 434 kts | 205° |
| 2026-04-28 23:15 | 32.33947 | -8.34167 | 28940 ft | 440 kts | 205° |
| 2026-04-28 23:15 | 32.31082 | -8.35494 | 28940 ft | 444 kts | 205° |
| 2026-04-28 23:16 | 32.25305 | -8.38164 | 28957 ft | 443 kts | 205° |
| 2026-04-28 23:16 | 32.19565 | -8.40812 | 28967 ft | 440 kts | 205° |
| 2026-04-28 23:17 | 32.13904 | -8.43424 | 28964 ft | 439 kts | 205° |
| 2026-04-28 23:17 | 32.08214 | -8.46106 | 28961 ft | 438 kts | 208° |
| 2026-04-28 23:18 | 32.02738 | -8.49182 | 28963 ft | 437 kts | 210° |
| 2026-04-28 23:18 | 31.97269 | -8.52377 | 28967 ft | 438 kts | 210° |
| 2026-04-28 23:19 | 31.91788 | -8.55537 | 28962 ft | 439 kts | 210° |
| 2026-04-28 23:19 | 31.86306 | -8.58662 | 28961 ft | 438 kts | 210° |
| 2026-04-28 23:20 | 31.80802 | -8.61786 | 28964 ft | 438 kts | 210° |
| 2026-04-28 23:20 | 31.75423 | -8.64832 | 28597 ft | 422 kts | 210° |
| 2026-04-28 23:21 | 31.72794 | -8.66319 | 28215 ft | 417 kts | 210° |
| 2026-04-28 23:21 | 31.70191 | -8.67794 | 27836 ft | 411 kts | 210° |
| 2026-04-28 23:21 | 31.67623 | -8.69249 | 27394 ft | 408 kts | 210° |
| 2026-04-28 23:21 | 31.65107 | -8.70673 | 26980 ft | 405 kts | 210° |
| 2026-04-28 23:22 | 31.62585 | -8.72101 | 26554 ft | 401 kts | 210° |
| 2026-04-28 23:22 | 31.60072 | -8.73522 | 26125 ft | 399 kts | 210° |
| 2026-04-28 23:22 | 31.57573 | -8.74934 | 25712 ft | 396 kts | 210° |
| 2026-04-28 23:22 | 31.55087 | -8.76338 | 25296 ft | 394 kts | 210° |
| 2026-04-28 23:23 | 31.52625 | -8.77726 | 24884 ft | 392 kts | 210° |
| 2026-04-28 23:23 | 31.50170 | -8.79050 | 24406 ft | 393 kts | 208° |
| 2026-04-28 23:23 | 31.47657 | -8.80310 | 23981 ft | 392 kts | 207° |
| 2026-04-28 23:23 | 31.45133 | -8.81544 | 23559 ft | 391 kts | 207° |
| 2026-04-28 23:24 | 31.42623 | -8.82769 | 23065 ft | 389 kts | 207° |
| 2026-04-28 23:24 | 31.40129 | -8.83992 | 22643 ft | 387 kts | 207° |
| 2026-04-28 23:24 | 31.37657 | -8.85212 | 22217 ft | 383 kts | 207° |
| 2026-04-28 23:24 | 31.35209 | -8.86425 | 21811 ft | 380 kts | 207° |
| 2026-04-28 23:25 | 31.32776 | -8.87633 | 21408 ft | 377 kts | 207° |
| 2026-04-28 23:25 | 31.30403 | -8.88813 | 21020 ft | 374 kts | 207° |
| 2026-04-28 23:25 | 31.28003 | -8.90007 | 20620 ft | 371 kts | 207° |
| 2026-04-28 23:25 | 31.25627 | -8.91189 | 20227 ft | 369 kts | 207° |
| 2026-04-28 23:26 | 31.23267 | -8.92362 | 19832 ft | 366 kts | 206° |
| 2026-04-28 23:26 | 31.20960 | -8.93508 | 19437 ft | 364 kts | 206° |
| 2026-04-28 23:26 | 31.18630 | -8.94664 | 19063 ft | 362 kts | 206° |
| 2026-04-28 23:26 | 31.16311 | -8.95816 | 18669 ft | 360 kts | 206° |
| 2026-04-28 23:27 | 31.14008 | -8.96958 | 18272 ft | 358 kts | 206° |
| 2026-04-28 23:27 | 31.11717 | -8.98094 | 17819 ft | 357 kts | 206° |
| 2026-04-28 23:27 | 31.09438 | -8.99223 | 17406 ft | 354 kts | 206° |
| 2026-04-28 23:27 | 31.07204 | -9.00329 | 17014 ft | 351 kts | 206° |
| 2026-04-28 23:28 | 31.04957 | -9.01441 | 16622 ft | 348 kts | 206° |
| 2026-04-28 23:28 | 31.02738 | -9.02538 | 16236 ft | 345 kts | 206° |
| 2026-04-28 23:28 | 31.00532 | -9.03629 | 15861 ft | 342 kts | 206° |
| 2026-04-28 23:28 | 30.98352 | -9.04715 | 15498 ft | 340 kts | 206° |
| 2026-04-28 23:29 | 30.96185 | -9.05797 | 15109 ft | 338 kts | 206° |
| 2026-04-28 23:29 | 30.94031 | -9.06874 | 14757 ft | 336 kts | 206° |
| 2026-04-28 23:29 | 30.91976 | -9.07901 | 14373 ft | 335 kts | 206° |
| 2026-04-28 23:29 | 30.89839 | -9.08969 | 14006 ft | 332 kts | 206° |
| 2026-04-28 23:30 | 30.87714 | -9.10030 | 13577 ft | 332 kts | 205° |
| 2026-04-28 23:30 | 30.85595 | -9.11086 | 13206 ft | 329 kts | 206° |
| 2026-04-28 23:30 | 30.83489 | -9.12135 | 12834 ft | 326 kts | 205° |
| 2026-04-28 23:30 | 30.81435 | -9.13159 | 12474 ft | 324 kts | 205° |
| 2026-04-28 23:31 | 30.79365 | -9.14190 | 12110 ft | 321 kts | 205° |
| 2026-04-28 23:31 | 30.77316 | -9.15210 | 11763 ft | 319 kts | 205° |
| 2026-04-28 23:31 | 30.75278 | -9.16224 | 11405 ft | 317 kts | 205° |
| 2026-04-28 23:31 | 30.73274 | -9.17220 | 11052 ft | 316 kts | 205° |
| 2026-04-28 23:32 | 30.71257 | -9.18222 | 10707 ft | 314 kts | 205° |
| 2026-04-28 23:32 | 30.69245 | -9.19231 | 10374 ft | 313 kts | 206° |
| 2026-04-28 23:32 | 30.67939 | -9.19900 | 10302 ft | 306 kts | 206° |
| 2026-04-28 23:32 | 30.65377 | -9.21222 | 10112 ft | 295 kts | 206° |
| 2026-04-28 23:33 | 30.63525 | -9.22177 | 10014 ft | 286 kts | 206° |
| 2026-04-28 23:33 | 30.61741 | -9.23095 | 9787 ft | 281 kts | 206° |
| 2026-04-28 23:33 | 30.59958 | -9.24011 | 9511 ft | 279 kts | 206° |
| 2026-04-28 23:33 | 30.58180 | -9.24923 | 9223 ft | 278 kts | 205° |
| 2026-04-28 23:34 | 30.56307 | -9.25406 | 8894 ft | 280 kts | 175° |
| 2026-04-28 23:34 | 30.54504 | -9.24620 | 8640 ft | 278 kts | 144° |
| 2026-04-28 23:34 | 30.53213 | -9.22991 | 8379 ft | 273 kts | 123° |
| 2026-04-28 23:34 | 30.52529 | -9.21780 | 8207 ft | 269 kts | 124° |
| 2026-04-28 23:35 | 30.51083 | -9.19485 | 7831 ft | 264 kts | 129° |
| 2026-04-28 23:35 | 30.49873 | -9.17902 | 7568 ft | 261 kts | 134° |
| 2026-04-28 23:35 | 30.48545 | -9.16454 | 7311 ft | 264 kts | 139° |
| 2026-04-28 23:35 | 30.47094 | -9.15116 | 7050 ft | 268 kts | 143° |
| 2026-04-28 23:36 | 30.45537 | -9.13888 | 6771 ft | 273 kts | 147° |
| 2026-04-28 23:36 | 30.43890 | -9.12781 | 6485 ft | 272 kts | 150° |
| 2026-04-28 23:36 | 30.42775 | -9.12136 | 6285 ft | 270 kts | 153° |
| 2026-04-28 23:36 | 30.41056 | -9.11295 | 5998 ft | 265 kts | 159° |
| 2026-04-28 23:37 | 30.39320 | -9.10620 | 5707 ft | 260 kts | 163° |
| 2026-04-28 23:37 | 30.37581 | -9.10108 | 5456 ft | 256 kts | 167° |
| 2026-04-28 23:37 | 30.35857 | -9.09749 | 5271 ft | 245 kts | 172° |
| 2026-04-28 23:37 | 30.34202 | -9.09553 | 5156 ft | 234 kts | 181° |
| 2026-04-28 23:38 | 30.32692 | -9.10120 | 5002 ft | 231 kts | 220° |
| 2026-04-28 23:38 | 30.31861 | -9.11637 | 4861 ft | 225 kts | 258° |
| 2026-04-28 23:38 | 30.31720 | -9.13437 | 4583 ft | 224 kts | 268° |
| 2026-04-28 23:38 | 30.31688 | -9.15232 | 4286 ft | 221 kts | 270° |
| 2026-04-28 23:39 | 30.31709 | -9.16998 | 3993 ft | 217 kts | 271° |
| 2026-04-28 23:39 | 30.31746 | -9.18712 | 3711 ft | 214 kts | 271° |
| 2026-04-28 23:39 | 30.31784 | -9.20417 | 3426 ft | 205 kts | 271° |
| 2026-04-28 23:39 | 30.31820 | -9.22008 | 3175 ft | 195 kts | 271° |
| 2026-04-28 23:40 | 30.31855 | -9.23541 | 2915 ft | 186 kts | 270° |
| 2026-04-28 23:40 | 30.31887 | -9.24983 | 2689 ft | 172 kts | 271° |
| 2026-04-28 23:40 | 30.31917 | -9.26325 | 2435 ft | 160 kts | 270° |
| 2026-04-28 23:40 | 30.31945 | -9.27579 | 2279 ft | 150 kts | 270° |
| 2026-04-28 23:41 | 30.31973 | -9.28762 | 2047 ft | 143 kts | 269° |
| 2026-04-28 23:41 | 30.32006 | -9.29884 | 1898 ft | 140 kts | 270° |
| 2026-04-28 23:41 | 30.32022 | -9.31025 | 1676 ft | 143 kts | 268° |
| 2026-04-28 23:41 | 30.32063 | -9.32180 | 1498 ft | 144 kts | 269° |
| 2026-04-28 23:42 | 30.32085 | -9.33355 | 1303 ft | 147 kts | 269° |
| 2026-04-28 23:42 | 30.32144 | -9.34546 | 1091 ft | 149 kts | 268° |
| 2026-04-28 23:42 | 30.32147 | -9.35770 | 909 ft | 154 kts | 266° |
| 2026-04-28 23:42 | 30.32169 | -9.37001 | 748 ft | 155 kts | 271° |
| 2026-04-28 23:43 | 30.32199 | -9.38252 | 487 ft | 156 kts | 269° |
| 2026-04-28 23:43 | 30.32225 | -9.39514 | 281 ft | 156 kts | 268° |
| 2026-04-28 23:43 | 30.32250 | -9.40708 | 230 ft | 131 kts | 272° |
| 2026-04-28 23:43 | 30.32271 | -9.41564 | 230 ft | 85 kts | 271° |
| 2026-04-28 23:44 | 30.32321 | -9.41909 | 230 ft | 29 kts | 295° |
| 2026-04-28 23:44 | 30.32373 | -9.42005 | 231 ft | 11 kts | 302° |
| 2026-04-28 23:44 | 30.32413 | -9.42078 | 230 ft | 11 kts | 302° |
| 2026-04-28 23:44 | 30.32450 | -9.42150 | 230 ft | 10 kts | 300° |
| 2026-04-28 23:45 | 30.32505 | -9.42196 | 230 ft | 11 kts | 355° |
| 2026-04-28 23:45 | 30.32580 | -9.42194 | 230 ft | 11 kts | 1° |
| 2026-04-28 23:45 | 30.32652 | -9.42192 | 230 ft | 10 kts | 1° |
| 2026-04-28 23:45 | 30.32723 | -9.42190 | 230 ft | 11 kts | 1° |
| 2026-04-28 23:46 | 30.32809 | -9.42178 | 230 ft | 13 kts | 28° |
| 2026-04-28 23:46 | 30.32834 | -9.42086 | 230 ft | 13 kts | 91° |
| 2026-04-28 23:46 | 30.32831 | -9.41985 | 230 ft | 12 kts | 92° |
| 2026-04-28 23:46 | 30.32828 | -9.41887 | 230 ft | 12 kts | 92° |
| 2026-04-28 23:47 | 30.32826 | -9.41791 | 230 ft | 12 kts | 91° |
| 2026-04-28 23:47 | 30.32824 | -9.41698 | 230 ft | 11 kts | 91° |
| 2026-04-28 23:47 | 30.32822 | -9.41607 | 230 ft | 11 kts | 92° |
| 2026-04-28 23:47 | 30.32820 | -9.41521 | 230 ft | 11 kts | 91° |
| 2026-04-28 23:48 | 30.32818 | -9.41435 | 230 ft | 10 kts | 91° |
| 2026-04-28 23:48 | 30.32816 | -9.41352 | 230 ft | 10 kts | 92° |
| 2026-04-28 23:48 | 30.32814 | -9.41272 | 230 ft | 10 kts | 92° |
| 2026-04-28 23:48 | 30.32812 | -9.41193 | 230 ft | 10 kts | 91° |
| 2026-04-28 23:49 | 30.32828 | -9.41144 | 231 ft | 6 kts | 17° |
| 2026-04-28 23:49 | 30.32858 | -9.41145 | 230 ft | 0 kts | 3° |
| 2026-04-28 23:49 | 30.32863 | -9.41145 | 232 ft | 4 kts | 2° |
| 2026-04-28 23:49 | 30.32886 | -9.41144 | 230 ft | 0 kts | 2° |